createdAt,value
2018-03-29T00:07:01.728Z,7.55
2018-03-29T00:16:58.383Z,7.39
2018-03-29T00:26:57.038Z,7.39
2018-03-29T00:36:53.363Z,7.41
2018-03-29T00:46:50.760Z,7.41
2018-03-29T00:56:48.276Z,7.30
2018-03-29T01:06:45.691Z,7.24
2018-03-29T01:16:42.803Z,7.12
2018-03-29T01:26:39.787Z,7.02
2018-03-29T01:36:37.346Z,6.87
2018-03-29T01:46:33.772Z,6.87
2018-03-29T01:56:31.980Z,6.88
2018-03-29T02:06:30.184Z,6.83
2018-03-29T02:16:26.909Z,6.84
2018-03-29T02:26:24.188Z,7.19
2018-03-29T02:36:23.145Z,7.02
2018-03-29T02:46:21.143Z,6.98
2018-03-29T02:56:18.214Z,6.91
2018-03-29T03:06:15.081Z,6.78
2018-03-29T03:16:12.166Z,6.62
2018-03-29T03:26:10.306Z,6.62
2018-03-29T03:36:01.006Z,6.54
2018-03-29T03:45:58.136Z,6.57
2018-03-29T03:55:56.155Z,6.42
2018-03-29T04:05:52.828Z,6.47
2018-03-29T04:15:50.236Z,6.54
2018-03-29T04:25:47.078Z,6.33
2018-03-29T04:35:42.644Z,6.41
2018-03-29T04:45:38.347Z,6.41
2018-03-29T04:55:35.602Z,6.42
2018-03-29T05:05:33.279Z,6.37
2018-03-29T05:15:32.363Z,6.44
2018-03-29T05:25:28.244Z,6.62
2018-03-29T05:35:27.115Z,6.69
2018-03-29T05:45:26.313Z,6.90
2018-03-29T05:55:22.988Z,6.98
2018-03-29T06:05:20.482Z,7.13
2018-03-29T06:15:17.743Z,7.27
2018-03-29T06:25:14.810Z,7.37
2018-03-29T06:35:08.359Z,7.49
2018-03-29T06:45:05.345Z,7.78
2018-03-29T06:55:02.601Z,8.34
2018-03-29T07:04:57.263Z,8.68
2018-03-29T07:14:54.802Z,9.03
2018-03-29T07:24:47.930Z,9.05
2018-03-29T07:34:43.448Z,9.32
2018-03-29T07:44:41.640Z,9.65
2018-03-29T07:54:39.841Z,9.85
2018-03-29T08:04:37.650Z,9.74
2018-03-29T08:14:32.176Z,9.70
2018-03-29T08:24:24.013Z,10.00
2018-03-29T08:34:22.683Z,10.44
2018-03-29T08:44:18.015Z,10.49
2018-03-29T08:54:14.590Z,10.47
2018-03-29T09:04:10.791Z,10.26
2018-03-29T09:14:05.652Z,10.43
2018-03-29T09:23:57.450Z,10.56
2018-03-29T09:33:48.492Z,10.49
2018-03-29T09:43:40.936Z,10.55
2018-03-29T09:53:37.005Z,10.46
2018-03-29T10:03:34.075Z,10.55
2018-03-29T10:13:32.410Z,10.55
2018-03-29T10:23:29.661Z,10.60
2018-03-29T10:33:20.868Z,10.44
2018-03-29T10:43:17.373Z,10.55
2018-03-29T10:53:10.058Z,10.65
2018-03-29T11:03:07.788Z,10.93
2018-03-29T11:13:06.187Z,11.00
2018-03-29T11:23:01.237Z,10.96
2018-03-29T11:32:59.109Z,10.98
2018-03-29T11:42:57.664Z,10.91
2018-03-29T11:52:50.650Z,10.98
2018-03-29T12:02:43.893Z,10.99
2018-03-29T12:12:41.342Z,11.13
2018-03-29T12:22:38.072Z,11.10
2018-03-29T12:32:33.109Z,10.88
2018-03-29T12:42:27.669Z,10.88
2018-03-29T12:52:13.594Z,10.98
2018-03-29T13:02:06.648Z,10.99
2018-03-29T13:12:05.111Z,11.08
2018-03-29T13:21:59.488Z,11.16
2018-03-29T13:31:56.518Z,10.95
2018-03-29T13:41:50.376Z,10.84
2018-03-29T13:51:46.108Z,10.78
2018-03-29T14:01:43.310Z,10.78
2018-03-29T14:11:38.773Z,10.66
2018-03-29T14:21:33.741Z,10.58
2018-03-29T14:31:29.371Z,10.37
2018-03-29T14:41:24.302Z,10.15
2018-03-29T14:51:20.631Z,9.96
2018-03-29T15:01:17.648Z,9.79
2018-03-29T15:11:10.854Z,9.83
2018-03-29T15:21:04.000Z,9.83
2018-03-29T15:30:56.044Z,9.80
2018-03-29T15:40:54.094Z,9.64
2018-03-29T15:50:50.904Z,9.47
2018-03-29T16:00:47.779Z,9.32
2018-03-29T16:10:43.524Z,9.34
2018-03-29T16:20:35.930Z,9.22
2018-03-29T16:30:31.166Z,9.17
2018-03-29T16:40:24.710Z,9.03
2018-03-29T16:50:22.312Z,8.93
2018-03-29T17:00:17.898Z,8.84
2018-03-29T17:10:16.072Z,8.88
2018-03-29T17:20:06.674Z,8.87
2018-03-29T17:29:55.583Z,8.82
2018-03-29T17:39:52.696Z,8.68
2018-03-29T17:49:50.892Z,8.57
2018-03-29T17:59:46.939Z,8.65
2018-03-29T18:09:42.611Z,8.70
2018-03-29T18:19:31.113Z,8.61
2018-03-29T18:29:19.031Z,8.62
2018-03-29T18:39:15.137Z,8.70
2018-03-29T18:49:11.695Z,8.65
2018-03-29T18:59:06.694Z,8.54
2018-03-29T19:09:02.327Z,8.48
2018-03-29T19:18:59.029Z,8.37
2018-03-29T19:28:53.381Z,8.39
2018-03-29T19:38:50.223Z,8.34
2018-03-29T19:48:44.519Z,8.37
2018-03-29T19:58:39.634Z,8.39
2018-03-29T20:08:33.919Z,8.29
2018-03-29T20:18:30.578Z,8.21
2018-03-29T20:28:26.051Z,7.90
2018-03-29T20:38:22.044Z,7.75
2018-03-29T20:48:18.670Z,7.57
2018-03-29T20:58:15.502Z,7.38
2018-03-29T21:08:12.084Z,7.27
2018-03-29T21:18:09.071Z,7.13
2018-03-29T21:28:06.812Z,7.11
2018-03-29T21:38:04.028Z,7.01
2018-03-29T21:48:00.815Z,6.94
2018-03-29T21:57:59.198Z,6.76
2018-03-29T22:07:53.376Z,6.63
2018-03-29T22:17:50.690Z,6.47
2018-03-29T22:27:46.925Z,6.47
2018-03-29T22:37:44.652Z,6.44
2018-03-29T22:47:42.968Z,6.44
2018-03-29T22:57:39.202Z,6.33
2018-03-29T23:07:37.882Z,6.27
2018-03-29T23:17:34.956Z,6.30
2018-03-29T23:27:32.338Z,6.21
2018-03-29T23:37:26.649Z,6.21
2018-03-29T23:47:23.649Z,6.22
2018-03-29T23:57:20.799Z,6.13
